Time;durP1;ratioP1;P1;durP2;ratioP2;P2;SDS_P1;SDS_P2;PMS_P1;PMS_P2;Temp;Humidity;BMP_temperature;BMP_pressure;BME280_temperature;BME280_humidity;BME280_pressure;Samples;Min_cycle;Max_cycle;Signal;HPM_P1;HPM_P2
2024/02/19 00:21:55;;;;;;;23.10;14.90;;;0.80;99.90;;;;;;4753304;29;20339;-83
2024/02/19 00:26:19;;;;;;;21.90;14.93;;;0.80;99.90;;;;;;4764727;29;20527;-84
2024/02/19 00:57:08;;;;;;;24.33;15.40;;;0.80;99.90;;;;;;4920788;28;20230;-83
2024/02/19 01:12:38;;;;;;;21.40;14.27;;;0.70;99.90;;;;;;4815033;29;20287;-83
2024/02/19 01:17:09;;;;;;;20.20;14.27;;;0.80;99.90;;;;;;4752109;29;20229;-84
2024/02/19 01:43:02;;;;;;;22.87;15.13;;;0.80;99.90;;;;;;4776025;29;20934;-83
2024/02/19 02:13:11;;;;;;;19.70;13.60;;;0.60;99.90;;;;;;4727301;29;20252;-85
2024/02/19 02:38:32;;;;;;;18.63;12.03;;;0.40;99.90;;;;;;4637810;30;20278;-84
2024/02/19 03:04:01;;;;;;;15.00;10.03;;;0.30;99.90;;;;;;4645299;30;20574;-84
2024/02/19 03:24:25;;;;;;;13.73;9.77;;;0.60;99.90;;;;;;4736170;29;20200;-83
2024/02/19 03:44:44;;;;;;;14.37;10.17;;;0.60;99.90;;;;;;4780728;29;20197;-85
2024/02/19 04:04:44;;;;;;;14.33;10.10;;;0.60;99.90;;;;;;4709622;29;20241;-85
2024/02/19 04:30:19;;;;;;;11.30;9.03;;;0.50;99.90;;;;;;4802793;29;20211;-86
2024/02/19 05:00:49;;;;;;;10.40;8.80;;;0.70;99.90;;;;;;4873260;28;20440;-86
2024/02/19 05:26:10;;;;;;;12.90;9.23;;;0.50;99.90;;;;;;4678067;30;20641;-85
2024/02/19 05:46:22;;;;;;;11.50;8.13;;;0.50;99.90;;;;;;4553446;30;20547;-87
2024/02/19 06:21:48;;;;;;;10.83;8.40;;;0.70;99.90;;;;;;4603116;30;20297;-84
2024/02/19 06:51:46;;;;;;;13.63;9.00;;;0.90;99.90;;;;;;4640377;29;20591;-87
2024/02/19 07:12:28;;;;;;;12.03;8.47;;;1.30;99.90;;;;;;4785414;29;21250;-84
2024/02/19 07:37:59;;;;;;;11.27;7.87;;;1.50;99.90;;;;;;4639418;29;20585;-82
2024/02/19 08:13:27;;;;;;;12.37;8.60;;;2.10;99.40;;;;;;4744811;29;20233;-84
2024/02/19 08:49:11;;;;;;;12.73;9.07;;;2.40;99.40;;;;;;4781848;29;20663;-84
2024/02/19 08:53:31;;;;;;;11.27;8.63;;;2.70;98.50;;;;;;4657349;29;20623;-84
2024/02/19 09:14:11;;;;;;;11.40;8.90;;;3.00;96.40;;;;;;4568797;30;20567;-82
2024/02/19 09:34:15;;;;;;;10.70;8.60;;;3.10;96.60;;;;;;4535577;30;20784;-82
2024/02/19 09:54:55;;;;;;;12.80;9.40;;;3.70;98.60;;;;;;4694129;29;20615;-82
2024/02/19 10:20:13;;;;;;;14.57;10.43;;;3.20;99.90;;;;;;4660468;29;20661;-82
2024/02/19 10:50:33;;;;;;;16.23;11.03;;;2.90;99.90;;;;;;4718759;29;20200;-86
2024/02/19 11:15:33;;;;;;;17.43;11.93;;;2.60;99.90;;;;;;4592296;29;20558;-84
2024/02/19 11:35:48;;;;;;;18.87;13.47;;;2.70;99.90;;;;;;4534945;30;20620;-83
2024/02/19 12:52:12;;;;;;;23.03;14.97;;;3.00;99.90;;;;;;4590832;30;20824;-85
2024/02/19 13:17:48;;;;;;;26.20;16.73;;;3.00;99.90;;;;;;4745390;29;20337;-84
2024/02/19 13:58:32;;;;;;;31.20;20.03;;;3.00;99.90;;;;;;4847174;28;20258;-87
2024/02/19 14:23:31;;;;;;;29.83;19.00;;;3.30;99.90;;;;;;4788845;29;20476;-85
2024/02/19 14:49:04;;;;;;;34.53;20.17;;;3.30;99.90;;;;;;4613828;30;20225;-84
2024/02/19 15:39:16;;;;;;;42.10;24.23;;;3.70;99.90;;;;;;4592783;30;20758;-89
2024/02/19 16:00:11;;;;;;;42.67;25.70;;;3.90;99.90;;;;;;4717349;29;20979;-88
2024/02/19 17:01:09;;;;;;;50.90;30.97;;;4.60;99.90;;;;;;4767459;29;20201;-86
2024/02/19 17:05:33;;;;;;;52.77;30.37;;;4.80;99.90;;;;;;4726029;29;20548;-86
2024/02/19 17:26:11;;;;;;;42.43;27.60;;;5.10;99.90;;;;;;4871790;28;20189;-86
2024/02/19 17:51:08;;;;;;;28.87;19.37;;;5.60;99.90;;;;;;4843303;28;20630;-88
2024/02/19 18:17:15;;;;;;;10.50;8.13;;;6.20;99.90;;;;;;4984756;28;20184;-86
2024/02/19 18:57:40;;;;;;;5.90;5.23;;;6.30;99.90;;;;;;4961111;28;20227;-85
2024/02/19 19:28:00;;;;;;;8.20;6.70;;;6.20;99.90;;;;;;4944322;28;20189;-83
2024/02/19 19:58:26;;;;;;;4.67;4.27;;;5.90;99.90;;;;;;4887113;28;20234;-83
2024/02/19 20:23:58;;;;;;;4.53;4.13;;;5.60;99.90;;;;;;4832864;29;20222;-86
2024/02/19 20:54:25;;;;;;;5.90;5.10;;;5.40;99.90;;;;;;4753587;29;21303;-85
2024/02/19 21:14:25;;;;;;;6.00;5.40;;;5.40;99.90;;;;;;4714955;29;20515;-85
2024/02/19 21:44:33;;;;;;;8.47;6.60;;;5.30;99.90;;;;;;4683259;29;20266;-85
2024/02/19 22:00:09;;;;;;;9.13;6.80;;;5.20;99.90;;;;;;4676801;29;20693;-86
2024/02/19 22:25:37;;;;;;;11.70;8.97;;;5.20;99.90;;;;;;4582978;30;20694;-84
2024/02/19 22:45:39;;;;;;;13.50;10.03;;;5.20;99.90;;;;;;4746857;29;20642;-84
2024/02/19 23:11:21;;;;;;;13.47;9.90;;;5.10;99.90;;;;;;4695630;29;20258;-85
2024/02/19 23:41:14;;;;;;;11.23;8.47;;;5.10;99.90;;;;;;4731320;29;20558;-88
